Time;durP1;ratioP1;P1;durP2;ratioP2;P2;SDS_P1;SDS_P2;PMS_P1;PMS_P2;Temp;Humidity;BMP_temperature;BMP_pressure;BME280_temperature;BME280_humidity;BME280_pressure;Samples;Min_cycle;Max_cycle;Signal;HPM_P1;HPM_P2
2021/07/02 00:02:24;;;;;;;47.83;17.92;;;;;;;14.30;83.50;101434.72;5088351;27;20381;-65
2021/07/02 00:05:03;;;;;;;39.22;16.92;;;;;;;14.17;84.30;101436.97;5115057;27;20129;-63
2021/07/02 00:07:42;;;;;;;43.08;17.55;;;;;;;14.15;84.82;101429.16;5089907;27;20381;-64
2021/07/02 00:10:20;;;;;;;46.28;17.80;;;;;;;14.15;85.15;101420.31;5095334;27;20125;-65
2021/07/02 00:13:00;;;;;;;47.03;17.90;;;;;;;14.09;85.26;101421.78;5096623;28;20117;-64
2021/07/02 00:15:37;;;;;;;46.63;19.45;;;;;;;14.12;85.19;101432.16;5110520;27;20389;-64
2021/07/02 00:18:17;;;;;;;40.20;18.33;;;;;;;14.12;85.13;101424.16;5108240;27;20166;-63
2021/07/02 00:20:54;;;;;;;52.03;18.27;;;;;;;14.16;84.57;101430.81;5096264;27;20167;-64
2021/07/02 00:23:33;;;;;;;42.83;18.63;;;;;;;14.14;85.09;101424.81;5108959;27;20170;-63
2021/07/02 00:26:25;;;;;;;43.92;19.70;;;;;;;14.17;84.60;101420.97;5110501;27;20761;-64
2021/07/02 00:29:04;;;;;;;51.35;19.13;;;;;;;14.14;85.32;101424.00;5090138;28;20393;-64
2021/07/02 00:31:42;;;;;;;43.20;16.98;;;;;;;14.13;84.36;101422.31;5126379;27;20747;-64
2021/07/02 00:34:20;;;;;;;52.33;18.42;;;;;;;14.19;84.42;101417.16;5131060;27;20382;-64
2021/07/02 00:36:58;;;;;;;46.50;18.10;;;;;;;14.37;83.08;101416.22;5129681;27;20387;-64
2021/07/02 00:39:37;;;;;;;49.40;17.95;;;;;;;14.10;83.78;101410.13;5130862;27;20353;-64
2021/07/02 00:42:15;;;;;;;42.85;18.10;;;;;;;14.14;83.86;101419.47;5130262;27;20401;-64
2021/07/02 00:44:53;;;;;;;47.45;18.38;;;;;;;14.12;84.58;101412.66;5129935;27;20382;-64
2021/07/02 00:47:31;;;;;;;42.53;18.92;;;;;;;14.02;84.51;101410.94;5131084;27;20387;-64
2021/07/02 00:50:10;;;;;;;54.40;18.77;;;;;;;14.03;84.73;101414.44;5127637;27;20361;-64
2021/07/02 00:52:48;;;;;;;45.95;18.67;;;;;;;14.01;84.68;101409.25;5017389;27;1179149;-65
2021/07/02 00:55:26;;;;;;;43.47;17.85;;;;;;;14.01;84.79;101406.59;5122211;27;21098;-63
2021/07/02 00:58:06;;;;;;;46.72;18.33;;;;;;;14.04;84.77;101401.94;5132516;27;20338;-64
2021/07/02 01:00:47;;;;;;;48.05;18.70;;;;;;;14.01;84.75;101408.44;5108737;27;20128;-64
2021/07/02 01:03:25;;;;;;;42.35;18.00;;;;;;;14.07;84.01;101402.44;5131246;27;20385;-64
2021/07/02 01:06:04;;;;;;;44.15;17.65;;;;;;;14.17;83.24;101395.16;5088494;27;20404;-65
2021/07/02 01:08:42;;;;;;;50.20;18.13;;;;;;;14.16;83.32;101401.47;5109974;27;20412;-65
2021/07/02 01:11:20;;;;;;;43.95;18.45;;;;;;;14.09;83.95;101404.97;5082278;27;20452;-65
2021/07/02 01:13:58;;;;;;;44.35;18.77;;;;;;;13.91;84.51;101400.53;5108894;27;20128;-64
2021/07/02 01:16:38;;;;;;;38.03;18.05;;;;;;;13.85;84.87;101395.03;5095927;27;20406;-64
2021/07/02 01:19:18;;;;;;;41.15;18.20;;;;;;;13.87;84.51;101393.03;5129017;27;20383;-64
2021/07/02 01:21:58;;;;;;;36.97;17.27;;;;;;;13.77;84.89;101391.31;5129426;27;20394;-64
2021/07/02 01:24:43;;;;;;;44.97;18.50;;;;;;;13.93;84.23;101393.19;5139946;27;20185;-65
2021/07/02 01:27:23;;;;;;;43.75;17.48;;;;;;;13.98;83.57;101400.75;5110356;27;20400;-65
2021/07/02 01:30:05;;;;;;;38.63;17.60;;;;;;;13.87;83.66;101393.03;5130392;27;20132;-64
2021/07/02 01:32:44;;;;;;;51.25;17.67;;;;;;;13.81;84.08;101394.50;5127227;27;20398;-64
2021/07/02 01:35:23;;;;;;;42.25;17.40;;;;;;;13.91;83.57;101391.72;5129831;27;20390;-64
2021/07/02 01:38:02;;;;;;;46.85;17.73;;;;;;;13.80;84.09;101392.81;5130869;27;20375;-63
2021/07/02 01:40:42;;;;;;;41.15;17.33;;;;;;;13.85;83.33;101393.19;5125651;27;20410;-64
2021/07/02 01:43:22;;;;;;;43.88;18.70;;;;;;;13.76;84.29;101394.97;5109471;27;20387;-64
2021/07/02 01:46:00;;;;;;;43.33;17.52;;;;;;;13.67;84.25;101392.44;5110434;27;20898;-64
2021/07/02 01:48:41;;;;;;;39.22;17.55;;;;;;;13.66;84.58;101388.94;5111215;27;20124;-64
2021/07/02 01:51:22;;;;;;;42.38;17.23;;;;;;;13.65;84.13;101383.75;5131058;27;20653;-64
2021/07/02 01:54:02;;;;;;;38.90;17.58;;;;;;;13.58;84.60;101391.53;5054489;28;20387;-64
2021/07/02 01:56:48;;;;;;;38.03;16.73;;;;;;;13.56;84.71;101388.19;5150561;27;20129;-63
2021/07/02 01:59:29;;;;;;;41.75;17.17;;;;;;;13.55;84.41;101384.72;5114169;27;20399;-63
2021/07/02 02:02:10;;;;;;;38.38;16.92;;;;;;;13.56;84.83;101386.38;5126128;27;20358;-64
2021/07/02 02:04:49;;;;;;;41.78;17.83;;;;;;;13.55;85.12;101382.03;5008330;27;1192054;-64
2021/07/02 02:07:29;;;;;;;40.08;17.08;;;;;;;13.53;85.08;101384.00;5069334;28;20130;-64
2021/07/02 02:10:07;;;;;;;42.08;16.73;;;;;;;13.56;84.93;101380.22;5089087;28;20397;-65
2021/07/02 02:12:45;;;;;;;41.95;17.08;;;;;;;13.60;84.90;101379.72;5058705;27;1193702;-64
2021/07/02 02:15:23;;;;;;;41.80;16.75;;;;;;;13.58;84.54;101378.22;5084682;27;20399;-64
2021/07/02 02:18:04;;;;;;;41.55;17.13;;;;;;;13.55;84.69;101371.38;5090308;27;20459;-62
2021/07/02 02:20:46;;;;;;;42.15;16.92;;;;;;;13.61;84.47;101376.06;5129869;27;20356;-65
2021/07/02 02:23:24;;;;;;;44.00;16.13;;;;;;;13.66;84.41;101375.59;5130923;27;20381;-65
2021/07/02 02:26:04;;;;;;;41.72;16.40;;;;;;;13.77;83.66;101379.81;5087432;28;22061;-64
2021/07/02 02:28:42;;;;;;;37.00;16.10;;;;;;;13.82;83.54;101380.16;5089810;27;20887;-64
2021/07/02 02:31:21;;;;;;;40.17;16.85;;;;;;;13.70;84.26;101384.94;5129817;27;20377;-64
2021/07/02 02:34:06;;;;;;;38.53;16.08;;;;;;;13.66;84.51;101378.28;5130968;27;20120;-63
2021/07/02 02:36:45;;;;;;;40.05;16.10;;;;;;;13.62;84.48;101388.41;5087036;27;20393;-63
2021/07/02 02:39:24;;;;;;;40.90;16.15;;;;;;;13.63;84.61;101384.75;5130876;27;20382;-64
2021/07/02 02:42:03;;;;;;;35.63;15.98;;;;;;;13.68;84.53;101383.41;5099696;27;20129;-62
2021/07/02 02:44:43;;;;;;;35.80;16.23;;;;;;;13.67;84.88;101384.44;5110418;27;20128;-62
2021/07/02 02:47:21;;;;;;;42.38;16.75;;;;;;;13.62;84.70;101385.75;5150292;27;19920;-64
2021/07/02 02:50:03;;;;;;;38.83;16.58;;;;;;;13.66;84.95;101386.28;5130917;27;20669;-63
2021/07/02 02:52:42;;;;;;;46.03;16.35;;;;;;;13.68;84.48;101386.94;5115891;27;20366;-64
2021/07/02 02:55:21;;;;;;;39.72;17.02;;;;;;;13.75;83.71;101387.97;5130765;27;20349;-65
2021/07/02 02:58:00;;;;;;;40.22;16.48;;;;;;;13.77;83.51;101395.78;5068627;28;20401;-64
2021/07/02 03:00:40;;;;;;;40.92;16.48;;;;;;;13.73;84.09;101389.94;5110370;27;20124;-64
2021/07/02 03:03:20;;;;;;;35.55;15.25;;;;;;;13.69;84.37;101388.59;5148837;27;20123;-64
2021/07/02 03:06:06;;;;;;;39.33;16.02;;;;;;;13.72;84.18;101379.47;5100790;27;20418;-64
2021/07/02 03:08:46;;;;;;;37.90;16.40;;;;;;;13.81;83.12;101381.16;5130123;27;20383;-64
2021/07/02 03:11:24;;;;;;;42.70;15.98;;;;;;;13.74;83.76;101386.28;5143608;27;20398;-63
2021/07/02 03:14:04;;;;;;;40.92;15.98;;;;;;;13.70;83.66;101386.75;5129234;27;20357;-64
2021/07/02 03:16:42;;;;;;;36.95;16.38;;;;;;;13.75;83.80;101395.13;5102462;27;20894;-65
2021/07/02 03:19:24;;;;;;;41.67;17.52;;;;;;;13.72;83.94;101390.13;5129687;27;20409;-64
2021/07/02 03:22:07;;;;;;;37.28;16.33;;;;;;;13.91;82.49;101397.88;5120334;27;20915;-63
2021/07/02 03:24:50;;;;;;;34.30;15.82;;;;;;;13.79;83.28;101394.66;5138836;27;20338;-64
2021/07/02 03:27:29;;;;;;;41.22;16.65;;;;;;;13.70;83.76;101386.75;5130266;27;20751;-63
2021/07/02 03:30:10;;;;;;;42.58;15.95;;;;;;;13.63;84.30;101390.06;5131038;27;20747;-65
2021/07/02 03:32:48;;;;;;;49.67;16.77;;;;;;;13.59;84.07;101379.91;5066162;27;1200702;-64
2021/07/02 03:35:27;;;;;;;40.35;16.27;;;;;;;13.56;83.93;101386.38;5130999;27;20405;-64
2021/07/02 03:38:07;;;;;;;50.60;21.27;;;;;;;13.52;83.86;101392.19;5128791;27;20547;-63
2021/07/02 03:40:48;;;;;;;37.03;17.15;;;;;;;13.50;83.71;101389.66;5118778;27;20922;-64
2021/07/02 03:43:28;;;;;;;40.05;16.35;;;;;;;13.50;83.99;101388.81;5129415;27;20398;-63
2021/07/02 03:46:08;;;;;;;40.83;16.00;;;;;;;13.43;84.42;101393.97;5138460;27;20354;-65
2021/07/02 03:48:48;;;;;;;33.88;15.32;;;;;;;13.44;83.85;101400.94;5073712;27;20587;-63
2021/07/02 03:51:26;;;;;;;38.65;16.73;;;;;;;13.37;84.35;101390.09;5095974;27;20529;-62
2021/07/02 03:54:04;;;;;;;36.70;15.73;;;;;;;13.51;83.13;101394.00;5110084;27;20577;-64
2021/07/02 03:57:10;;;;;;;34.58;14.93;;;;;;;13.43;83.60;101402.78;5095153;27;20590;-64
2021/07/02 03:59:43;;;;;;;32.17;15.25;;;;;;;13.41;84.31;101406.59;5130620;27;20354;-64
2021/07/02 04:02:21;;;;;;;38.33;16.25;;;;;;;13.33;84.56;101399.38;5127766;27;20730;-63
2021/07/02 04:04:59;;;;;;;34.35;15.48;;;;;;;13.30;84.74;101402.34;5130490;27;20707;-62
2021/07/02 04:07:38;;;;;;;40.75;15.93;;;;;;;13.28;85.04;101414.13;5112706;27;19916;-64
2021/07/02 04:10:17;;;;;;;39.25;15.88;;;;;;;13.32;85.12;101411.03;5108453;27;20523;-64
2021/07/02 04:12:55;;;;;;;35.00;16.25;;;;;;;13.35;84.81;101412.53;5102927;27;20183;-64
2021/07/02 04:15:34;;;;;;;38.30;15.40;;;;;;;13.47;84.44;101416.63;5068495;28;20402;-64
2021/07/02 04:18:13;;;;;;;38.60;15.95;;;;;;;13.43;84.98;101415.28;5090176;27;20385;-64
2021/07/02 04:20:51;;;;;;;38.38;15.40;;;;;;;13.50;84.34;101420.81;5067287;28;20406;-64
2021/07/02 04:23:29;;;;;;;35.58;15.93;;;;;;;13.50;84.73;101418.13;5128161;27;20421;-64
2021/07/02 04:26:08;;;;;;;38.30;15.88;;;;;;;13.58;84.69;101418.19;5090497;27;20129;-65
2021/07/02 04:28:46;;;;;;;42.35;16.60;;;;;;;13.54;84.52;101417.69;5128908;27;20357;-63
2021/07/02 04:31:25;;;;;;;37.42;16.55;;;;;;;13.60;84.22;101410.88;5151290;27;20123;-64
2021/07/02 04:34:03;;;;;;;42.38;17.08;;;;;;;13.59;84.04;101412.72;5151572;27;20119;-62
2021/07/02 04:36:41;;;;;;;39.63;16.05;;;;;;;13.63;83.91;101410.56;5108463;27;20129;-64
2021/07/02 04:39:21;;;;;;;38.67;16.33;;;;;;;13.68;83.45;101418.06;5108641;27;20589;-64
2021/07/02 04:41:59;;;;;;;36.00;15.63;;;;;;;13.62;83.30;101415.06;5129891;27;20398;-63
2021/07/02 04:44:38;;;;;;;37.95;16.25;;;;;;;13.61;83.72;101410.72;5110383;27;20178;-63
2021/07/02 04:47:17;;;;;;;37.72;14.90;;;;;;;13.69;83.00;101417.94;5115184;27;20124;-63
2021/07/02 04:49:57;;;;;;;36.00;15.63;;;;;;;13.89;81.01;101437.19;5130463;27;20357;-64
2021/07/02 04:52:34;;;;;;;39.58;14.85;;;;;;;13.78;81.87;101422.31;5109711;27;1172798;-65
2021/07/02 04:55:12;;;;;;;39.30;16.33;;;;;;;13.73;82.85;101424.59;5094506;27;20385;-63
2021/07/02 04:57:50;;;;;;;37.95;16.02;;;;;;;13.82;82.46;101430.81;5124251;27;20407;-64
2021/07/02 05:00:28;;;;;;;36.83;15.40;;;;;;;13.95;81.68;101427.72;5127335;27;20398;-64
2021/07/02 05:03:06;;;;;;;37.08;16.30;;;;;;;13.95;81.59;101425.91;5131066;27;20432;-65
2021/07/02 05:05:44;;;;;;;37.85;14.90;;;;;;;14.06;78.82;101424.78;5129956;27;20372;-63
2021/07/02 05:08:24;;;;;;;31.75;13.73;;;;;;;13.96;79.02;101422.22;5130999;27;20119;-64
2021/07/02 05:11:02;;;;;;;40.63;14.75;;;;;;;13.90;80.14;101422.03;5091457;27;20772;-63
2021/07/02 05:13:53;;;;;;;40.42;14.07;;;;;;;14.16;78.72;101424.66;5128940;27;21210;-62
2021/07/02 05:16:32;;;;;;;31.65;14.38;;;;;;;14.12;78.89;101426.00;5110372;27;20654;-65
2021/07/02 05:19:10;;;;;;;31.00;13.57;;;;;;;14.21;80.20;101427.69;5066014;28;20402;-64
2021/07/02 05:21:49;;;;;;;32.53;12.60;;;;;;;14.08;77.82;101421.94;5069868;28;20412;-64
2021/07/02 05:24:27;;;;;;;32.50;12.57;;;;;;;14.36;76.68;101428.72;5068322;28;20422;-62
2021/07/02 05:27:05;;;;;;;26.50;12.27;;;;;;;14.24;78.46;101422.00;5069877;28;20386;-62
2021/07/02 05:29:44;;;;;;;31.63;12.43;;;;;;;14.47;75.90;101422.25;5089744;27;20447;-65
2021/07/02 05:32:23;;;;;;;29.65;13.18;;;;;;;14.35;77.27;101429.75;5109877;27;20174;-65
2021/07/02 05:35:14;;;;;;;26.02;11.45;;;;;;;14.74;74.23;101420.34;5115649;27;20377;-64
2021/07/02 05:37:52;;;;;;;26.50;12.05;;;;;;;14.50;75.47;101429.13;5123326;27;21544;-63
2021/07/02 05:40:30;;;;;;;24.27;11.57;;;;;;;14.53;74.41;101423.44;5130828;27;20385;-64
2021/07/02 05:43:08;;;;;;;25.15;11.38;;;;;;;14.59;74.18;101425.50;5130816;27;20387;-64
2021/07/02 05:45:47;;;;;;;28.27;12.05;;;;;;;14.56;75.94;101428.44;5128015;27;20371;-63
2021/07/02 05:48:25;;;;;;;25.75;11.73;;;;;;;14.71;74.16;101434.84;5130535;27;20379;-64
2021/07/02 05:51:03;;;;;;;25.15;12.15;;;;;;;14.62;74.87;101427.81;5127701;27;20402;-65
2021/07/02 05:53:53;;;;;;;32.00;11.93;;;;;;;14.60;75.59;101424.47;5150970;27;20340;-64
2021/07/02 05:56:32;;;;;;;32.78;12.27;;;;;;;14.62;75.35;101421.66;5066634;28;20405;-64
2021/07/02 05:59:09;;;;;;;25.83;11.90;;;;;;;14.58;75.57;101419.31;5067515;27;1174148;-63
2021/07/02 06:01:47;;;;;;;23.70;11.00;;;;;;;14.85;71.13;101427.19;5048820;28;20953;-65
2021/07/02 06:04:26;;;;;;;33.30;12.07;;;;;;;14.74;72.53;101429.19;5110532;27;20129;-65
2021/07/02 06:07:04;;;;;;;29.48;11.35;;;;;;;14.73;73.03;101429.34;5077463;27;20506;-64
2021/07/02 06:09:42;;;;;;;29.08;10.73;;;;;;;14.65;73.11;101434.69;5130770;27;20385;-64
2021/07/02 06:12:21;;;;;;;28.75;12.27;;;;;;;14.72;76.05;101436.53;5128600;27;20116;-64
2021/07/02 06:15:01;;;;;;;30.58;11.13;;;;;;;14.72;73.12;101443.72;5107612;27;20121;-64
2021/07/02 06:17:42;;;;;;;34.05;11.88;;;;;;;14.77;74.28;101442.22;5109774;27;20292;-64
2021/07/02 06:20:22;;;;;;;24.85;11.10;;;;;;;14.89;75.05;101448.06;5120686;27;20394;-63
2021/07/02 06:23:01;;;;;;;30.83;10.80;;;;;;;14.97;72.65;101444.56;5130567;27;20751;-63
2021/07/02 06:25:40;;;;;;;26.30;9.75;;;;;;;15.16;70.22;101443.41;5129059;27;20395;-65
2021/07/02 06:28:18;;;;;;;27.42;10.23;;;;;;;15.06;73.21;101446.25;5130879;27;20721;-64
2021/07/02 06:30:57;;;;;;;23.17;9.80;;;;;;;15.01;70.21;101451.25;5110227;27;20469;-65
2021/07/02 06:33:36;;;;;;;26.35;10.13;;;;;;;15.09;71.15;101445.91;5069929;28;20759;-65
2021/07/02 06:36:14;;;;;;;25.60;10.27;;;;;;;15.05;71.85;101446.41;5045659;28;20423;-64
2021/07/02 06:38:52;;;;;;;23.02;9.82;;;;;;;15.03;71.09;101443.91;5067859;28;20402;-63
2021/07/02 06:41:31;;;;;;;30.02;10.07;;;;;;;15.16;72.80;101448.75;5069827;28;20875;-64
2021/07/02 06:44:09;;;;;;;29.38;9.73;;;;;;;15.23;70.40;101452.44;5049898;28;20414;-63
2021/07/02 06:46:45;;;;;;;22.85;11.10;;;;;;;15.33;72.89;101445.09;5001768;27;1313680;-64
2021/07/02 06:49:24;;;;;;;22.10;8.93;;;;;;;15.45;70.56;101448.22;5111150;27;20387;-64
2021/07/02 06:52:05;;;;;;;24.33;9.45;;;;;;;15.51;70.40;101441.38;5131675;27;20707;-64
2021/07/02 06:54:43;;;;;;;25.40;10.05;;;;;;;15.59;68.69;101441.38;5130387;27;20519;-65
2021/07/02 06:57:21;;;;;;;30.20;9.30;;;;;;;15.69;69.98;101444.69;5099611;27;20194;-65
2021/07/02 07:00:03;;;;;;;23.58;9.07;;;;;;;15.83;69.81;101439.69;5089890;28;20451;-63
2021/07/02 07:02:45;;;;;;;19.65;8.13;;;;;;;15.93;66.68;101442.97;5095798;27;20843;-65
2021/07/02 07:05:24;;;;;;;25.25;8.70;;;;;;;15.96;67.72;101448.00;5106438;27;20162;-64
2021/07/02 07:08:04;;;;;;;20.55;8.98;;;;;;;16.05;68.36;101452.31;5084426;27;20377;-63
2021/07/02 07:10:44;;;;;;;25.05;9.60;;;;;;;16.25;66.46;101452.72;5095692;28;20375;-62
2021/07/02 07:13:22;;;;;;;22.35;8.73;;;;;;;16.26;64.41;101454.41;5130696;27;20375;-64
2021/07/02 07:16:00;;;;;;;27.33;8.25;;;;;;;16.23;63.71;101454.75;5129063;27;20921;-63
2021/07/02 07:18:38;;;;;;;17.73;7.93;;;;;;;16.14;64.45;101457.66;5130385;27;20879;-64
2021/07/02 07:21:21;;;;;;;22.98;8.50;;;;;;;15.92;67.63;101452.84;5112891;27;20479;-62
2021/07/02 07:24:01;;;;;;;20.48;8.02;;;;;;;15.83;66.00;101459.22;5124807;27;20402;-64
2021/07/02 07:26:39;;;;;;;20.50;8.48;;;;;;;15.88;67.38;101456.03;5132627;27;19916;-62
2021/07/02 07:29:17;;;;;;;20.00;7.85;;;;;;;16.05;64.43;101452.31;5059767;28;20403;-64
2021/07/02 07:31:56;;;;;;;23.02;8.65;;;;;;;16.17;63.53;101455.44;5106444;27;20128;-62
2021/07/02 07:34:44;;;;;;;19.65;8.52;;;;;;;16.14;64.19;101453.13;5129422;27;20383;-63
2021/07/02 07:37:22;;;;;;;19.73;8.02;;;;;;;16.04;64.52;101463.19;5124367;27;20402;-64
2021/07/02 07:40:02;;;;;;;24.67;8.35;;;;;;;16.04;65.69;101450.63;5121023;27;20380;-64
2021/07/02 07:42:39;;;;;;;18.85;7.32;;;;;;;16.08;66.54;101456.47;5148626;27;20392;-64
2021/07/02 07:45:19;;;;;;;19.10;6.28;;;;;;;16.38;62.62;101462.03;5115988;27;20412;-64
2021/07/02 07:47:57;;;;;;;16.55;6.68;;;;;;;16.38;62.16;101462.88;5106679;27;20419;-62
2021/07/02 07:50:48;;;;;;;15.50;6.45;;;;;;;16.55;61.69;101468.16;5098826;27;20854;-64
2021/07/02 07:53:27;;;;;;;15.32;6.07;;;;;;;16.63;63.77;101465.44;5129724;27;20375;-64
2021/07/02 07:56:06;;;;;;;12.82;5.30;;;;;;;16.68;61.93;101465.72;5112837;27;20124;-62
2021/07/02 07:58:43;;;;;;;16.83;5.75;;;;;;;16.90;62.09;101469.47;5126730;27;20405;-62
2021/07/02 08:01:22;;;;;;;13.00;5.13;;;;;;;17.21;58.65;101468.59;5079165;27;20401;-64
2021/07/02 08:04:01;;;;;;;14.45;4.90;;;;;;;17.27;59.43;101465.19;5125700;27;20767;-62
2021/07/02 08:06:41;;;;;;;13.23;5.13;;;;;;;17.24;57.91;101463.66;5069249;27;20399;-62
2021/07/02 08:09:20;;;;;;;18.48;5.07;;;;;;;17.25;59.79;101469.88;5128041;27;20763;-66
2021/07/02 08:12:01;;;;;;;14.43;5.40;;;;;;;17.26;59.15;101458.97;5146279;27;20361;-65
2021/07/02 08:14:39;;;;;;;14.82;5.53;;;;;;;17.25;60.53;101461.84;5100591;27;20352;-65
2021/07/02 08:17:17;;;;;;;16.52;5.40;;;;;;;17.42;61.08;101465.19;5088306;27;20896;-65
2021/07/02 08:19:56;;;;;;;14.27;4.90;;;;;;;17.60;58.79;101462.19;5021579;27;1526049;-64
2021/07/02 08:22:37;;;;;;;12.55;4.57;;;;;;;17.93;54.57;101467.25;5051143;28;20943;-65
2021/07/02 08:25:17;;;;;;;12.27;3.90;;;;;;;18.01;55.30;101461.78;5113609;27;20396;-65
2021/07/02 08:30:31;;;;;;;10.40;4.03;;;;;;;17.82;54.21;101457.75;5105910;28;20526;-66
2021/07/02 08:33:16;;;;;;;13.32;4.30;;;;;;;17.90;54.54;101462.22;5109252;27;20884;-67
2021/07/02 08:35:55;;;;;;;13.50;3.88;;;;;;;17.96;56.39;101469.56;5118247;27;20764;-67
2021/07/02 08:38:33;;;;;;;9.50;4.40;;;;;;;18.06;54.29;101467.41;5115997;27;20452;-66
2021/07/02 08:41:14;;;;;;;16.73;5.03;;;;;;;17.97;52.88;101463.16;5111756;27;20400;-66
2021/07/02 08:43:52;;;;;;;13.23;5.18;;;;;;;18.00;53.94;101463.63;5083115;27;20399;-66
2021/07/02 08:46:34;;;;;;;14.70;5.63;;;;;;;18.00;52.88;101460.13;5127544;27;20375;-66
2021/07/02 08:49:17;;;;;;;13.80;5.00;;;;;;;18.08;53.81;101457.34;5110830;27;20396;-66
2021/07/02 08:51:55;;;;;;;17.08;5.07;;;;;;;18.03;55.17;101460.56;5147351;27;20764;-65
2021/07/02 08:54:33;;;;;;;12.60;4.30;;;;;;;18.07;54.51;101453.00;5138196;27;20362;-66
2021/07/02 08:57:12;;;;;;;16.40;5.15;;;;;;;18.33;53.68;101459.72;5077249;28;20129;-67
2021/07/02 08:59:51;;;;;;;12.55;5.20;;;;;;;18.36;54.71;101462.03;5079185;27;20886;-66
2021/07/02 09:02:30;;;;;;;11.63;5.18;;;;;;;18.44;55.35;101451.16;5045971;27;1719556;-66
2021/07/02 09:05:33;;;;;;;14.38;5.13;;;;;;;18.63;52.94;101463.19;5109959;27;20160;-65
2021/07/02 09:08:14;;;;;;;13.68;5.10;;;;;;;18.79;51.58;101462.09;5127874;27;20402;-67
2021/07/02 09:10:54;;;;;;;9.35;4.35;;;;;;;18.88;52.89;101466.38;5110190;27;20850;-67
2021/07/02 09:13:43;;;;;;;12.98;5.65;;;;;;;18.86;51.15;101468.38;5103242;27;20384;-65
2021/07/02 09:16:34;;;;;;;20.30;5.50;;;;;;;18.73;52.44;101471.75;5077076;28;20127;-65
2021/07/02 09:19:22;;;;;;;14.65;5.15;;;;;;;18.91;53.42;101465.97;5127288;27;20358;-66
2021/07/02 09:22:21;;;;;;;11.88;4.95;;;;;;;18.82;52.24;101475.19;5146320;27;20357;-64
2021/07/02 09:25:09;;;;;;;13.85;5.50;;;;;;;18.67;52.41;101469.81;5076676;28;20420;-66
2021/07/02 09:27:49;;;;;;;14.30;5.50;;;;;;;18.35;52.55;101479.16;5150943;27;20325;-66
2021/07/02 09:30:32;;;;;;;16.65;6.18;;;;;;;18.20;52.67;101471.13;5129226;27;20417;-67
2021/07/02 09:33:13;;;;;;;15.65;5.20;;;;;;;18.20;54.15;101471.13;5104744;27;20422;-66
2021/07/02 09:35:56;;;;;;;20.88;5.65;;;;;;;18.12;54.63;101477.44;5089677;27;20381;-66
2021/07/02 09:38:37;;;;;;;15.20;5.55;;;;;;;18.09;55.22;101482.34;5086499;28;20947;-67
2021/07/02 09:41:17;;;;;;;14.48;6.35;;;;;;;17.94;54.87;101487.72;5112445;27;20407;-66
2021/07/02 09:44:09;;;;;;;16.70;6.07;;;;;;;18.36;54.80;101488.88;5109526;27;20392;-66
2021/07/02 09:46:46;;;;;;;15.88;5.53;;;;;;;18.56;55.77;101491.81;5088009;27;20408;-65
2021/07/02 09:49:30;;;;;;;17.88;6.63;;;;;;;18.68;53.63;101486.78;5087281;28;20485;-66
2021/07/02 09:52:12;;;;;;;14.80;6.40;;;;;;;18.65;53.39;101481.81;5089590;28;20119;-66
2021/07/02 09:54:59;;;;;;;;;;;;;;;18.81;53.48;101489.66;5089434;28;20094;-66
2021/07/02 09:57:26;;;;;;;13.90;6.45;;;;;;;18.94;56.22;101475.53;5074074;28;19932;-66
2021/07/02 10:00:13;;;;;;;18.65;7.30;;;;;;;19.12;52.86;101483.16;5088452;28;20048;-66
2021/07/02 10:02:53;;;;;;;22.83;6.32;;;;;;;19.12;53.35;101477.78;5084843;28;20048;-66
2021/07/02 10:05:20;;;;;;;16.25;6.35;;;;;;;19.18;53.61;101485.88;5088640;28;20056;-66
2021/07/02 10:08:04;;;;;;;16.88;6.25;;;;;;;19.31;53.02;101492.41;5088927;28;20127;-66
2021/07/02 10:10:31;;;;;;;16.95;6.75;;;;;;;19.10;54.65;101491.41;5084849;28;20044;-64
2021/07/02 10:12:58;;;;;;;15.30;5.28;;;;;;;19.10;53.06;101479.78;5084541;28;20068;-64
2021/07/02 10:15:27;;;;;;;14.73;5.45;;;;;;;19.45;53.51;101488.81;5083422;28;20036;-64
2021/07/02 10:17:57;;;;;;;13.48;6.07;;;;;;;19.63;50.04;101490.16;5078342;28;20102;-64
2021/07/02 10:20:28;;;;;;;12.88;5.70;;;;;;;19.43;49.73;101496.25;5087053;28;20039;-64
2021/07/02 10:22:59;;;;;;;15.50;6.32;;;;;;;19.68;50.41;101502.03;5065190;28;20137;-64
2021/07/02 10:25:29;;;;;;;14.13;6.60;;;;;;;19.58;51.52;101498.84;5079788;28;20040;-64
2021/07/02 10:27:57;;;;;;;19.83;6.95;;;;;;;19.56;50.98;101499.03;5079681;28;20121;-64
2021/07/02 10:30:24;;;;;;;15.63;6.38;;;;;;;19.66;51.42;101497.84;5084610;28;20040;-63
2021/07/02 10:32:57;;;;;;;20.90;7.50;;;;;;;19.64;51.34;101495.34;5067933;28;20044;-65
2021/07/02 10:35:28;;;;;;;18.90;7.60;;;;;;;19.51;50.63;101511.41;5096455;28;20086;-65
2021/07/02 10:37:57;;;;;;;18.35;7.50;;;;;;;19.33;51.26;101503.81;5095593;28;20052;-64
2021/07/02 10:40:41;;;;;;;20.13;8.00;;;;;;;19.66;51.14;101506.75;5081971;28;20059;-64
2021/07/02 10:43:12;;;;;;;15.23;7.72;;;;;;;19.77;49.79;101500.03;5083988;28;20036;-64
2021/07/02 10:46:15;;;;;;;17.93;6.87;;;;;;;19.82;51.61;101500.28;5082560;28;20076;-66
2021/07/02 10:49:06;;;;;;;19.92;7.60;;;;;;;20.22;51.75;101499.69;5082171;28;20161;-66
2021/07/02 10:56:59;;;;;;;19.35;8.05;;;;;;;20.74;50.19;101494.72;5083531;22;20182;-65
2021/07/02 11:02:29;;;;;;;23.73;9.85;;;;;;;21.37;47.26;101506.03;5087760;27;20419;-64
2021/07/02 11:04:59;;;;;;;19.80;9.25;;;;;;;20.66;48.90;101506.53;5077661;28;20029;-64
2021/07/02 11:10:05;;;;;;;23.50;9.90;;;;;;;20.36;49.50;101495.19;5123709;27;20462;-66
2021/07/02 11:12:38;;;;;;;22.52;9.93;;;;;;;20.40;49.82;101501.84;5099318;28;20097;-66
2021/07/02 11:17:45;;;;;;;21.40;10.57;;;;;;;20.13;51.86;101489.06;5098765;27;20346;-66
2021/07/02 11:23:13;;;;;;;18.35;9.63;;;;;;;20.36;52.10;101484.44;5065328;27;20426;-64
2021/07/02 11:25:47;;;;;;;21.40;9.85;;;;;;;20.63;50.63;101488.06;5059842;28;20045;-63
2021/07/02 11:28:19;;;;;;;22.75;10.55;;;;;;;20.93;51.45;101491.25;5071016;28;20745;-63
2021/07/02 11:30:48;;;;;;;22.90;11.05;;;;;;;21.13;51.26;101480.50;5084834;28;20033;-63
2021/07/02 11:33:21;;;;;;;20.98;11.00;;;;;;;21.25;49.01;101480.72;5067898;28;20406;-63
2021/07/02 11:35:55;;;;;;;24.98;11.38;;;;;;;21.07;49.12;101484.84;5066859;28;20041;-63
2021/07/02 11:38:24;;;;;;;21.23;11.02;;;;;;;20.82;50.53;101476.50;5064952;28;20037;-63
2021/07/02 11:40:55;;;;;;;22.83;11.15;;;;;;;20.89;51.53;101469.25;5062732;28;20040;-62
2021/07/02 11:43:29;;;;;;;;;;;;;;;21.12;50.81;101472.59;5057717;28;20063;-62
2021/07/02 11:46:01;;;;;;;25.88;11.75;;;;;;;21.38;48.67;101475.31;5085219;28;19921;-65
2021/07/02 11:48:30;;;;;;;27.90;12.05;;;;;;;21.18;47.62;101474.50;5060154;28;20033;-63
2021/07/02 11:51:00;;;;;;;24.27;11.88;;;;;;;21.03;47.93;101470.13;5063761;28;20064;-62
2021/07/02 11:53:49;;;;;;;21.95;10.73;;;;;;;20.73;51.29;101479.59;5066232;28;20170;-62
2021/07/02 11:56:36;;;;;;;22.85;10.40;;;;;;;20.89;50.00;101476.53;5063602;28;20045;-63
2021/07/02 11:59:06;;;;;;;32.78;15.98;;;;;;;20.64;49.01;101474.38;5056391;28;20057;-64
2021/07/02 12:01:44;;;;;;;37.85;17.35;;;;;;;20.60;50.39;101467.72;5061658;28;20059;-64
2021/07/02 12:04:34;;;;;;;44.22;27.13;;;;;;;20.51;52.40;101474.31;5062389;28;20040;-64
2021/07/02 12:07:08;;;;;;;34.70;20.02;;;;;;;20.56;52.19;101473.72;5063046;28;20094;-64
2021/07/02 12:09:40;;;;;;;22.25;12.50;;;;;;;20.73;53.29;101474.22;5065726;28;20060;-65
2021/07/02 12:12:07;;;;;;;26.83;12.50;;;;;;;20.88;51.21;101473.00;5064324;28;20190;-64
2021/07/02 12:14:37;;;;;;;25.20;12.40;;;;;;;21.00;48.91;101477.78;5067841;28;20482;-64
2021/07/02 12:17:05;;;;;;;25.90;11.68;;;;;;;21.16;50.54;101477.38;5045566;28;20037;-64
2021/07/02 12:19:34;;;;;;;23.27;11.13;;;;;;;20.98;49.97;101471.78;5044779;28;20055;-64
2021/07/02 12:22:06;;;;;;;23.42;10.82;;;;;;;20.94;50.63;101473.19;5061236;28;20057;-64
2021/07/02 12:24:34;;;;;;;;;;;;;;;20.77;52.02;101470.06;5066310;28;20064;-64